Weather at Quai Moncousu Heliport

Public forecast

Using degrees Celsius for public forecast. Weather courtesy of forecast.io.

Closest aviation weather report (METAR) to Quai Moncousu Heliport

Closest report is Nantes Atlantique Airport, 4.1 nm (7.6 km) SW. Retrieved 2021/08/01 00:00 UTC (26 minutes ago):

LFRS 010000Z AUTO VRB03KT CAVOK 14/12 Q1014 NOSIG

Closest aviation forecast (TAF) to Quai Moncousu Heliport

Closest forecast is Nantes Atlantique Airport, 4.1 nm (7.6 km) SW. Retrieved 2021-08-01 00:21 UTC (5 minutes ago):

TAF LFRS 312300Z 0100/0206 28006KT 9999 FEW040 BKN095 TEMPO 0109/0118 4500 -SHRA BKN030TCU TEMPO 0203/0206 4500 -SHRA BKN010 BKN030TCU